sensor_id;sensor_type;location;lat;lon;timestamp;temperature;humidity
40249;DHT22;25969;49.970;11.062;2022-09-29T04:23:19;5.90;99.90
40249;DHT22;25969;49.970;11.062;2022-09-29T04:33:20;6.20;99.90
40249;DHT22;25969;49.970;11.062;2022-09-29T04:43:21;6.40;99.90
40249;DHT22;25969;49.970;11.062;2022-09-29T04:53:22;6.40;99.90
40249;DHT22;25969;49.970;11.062;2022-09-29T05:03:23;6.50;99.90
40249;DHT22;25969;49.970;11.062;2022-09-29T05:13:25;6.40;99.90
40249;DHT22;25969;49.970;11.062;2022-09-29T05:23:27;6.10;99.90
40249;DHT22;25969;49.970;11.062;2022-09-29T05:33:28;6.30;99.90
40249;DHT22;25969;49.970;11.062;2022-09-29T05:43:29;6.50;99.90
40249;DHT22;25969;49.970;11.062;2022-09-29T05:53:30;6.90;99.90
40249;DHT22;25969;49.970;11.062;2022-09-29T06:03:32;7.30;99.90
40249;DHT22;25969;49.970;11.062;2022-09-29T06:13:37;7.60;99.90
40249;DHT22;25969;49.970;11.062;2022-09-29T06:23:38;7.90;99.90
40249;DHT22;25969;49.970;11.062;2022-09-29T06:33:40;8.30;99.90
40249;DHT22;25969;49.970;11.062;2022-09-29T06:43:41;8.70;99.90
40249;DHT22;25969;49.970;11.062;2022-09-29T06:53:41;9.20;99.90
40249;DHT22;25969;49.970;11.062;2022-09-29T07:03:42;9.60;99.90
40249;DHT22;25969;49.970;11.062;2022-09-29T07:13:43;9.70;99.90
40249;DHT22;25969;49.970;11.062;2022-09-29T07:23:45;10.30;99.90
40249;DHT22;25969;49.970;11.062;2022-09-29T07:33:48;10.40;99.90
40249;DHT22;25969;49.970;11.062;2022-09-29T07:43:49;10.80;99.90
40249;DHT22;25969;49.970;11.062;2022-09-29T07:53:49;15.30;99.90
40249;DHT22;25969;49.970;11.062;2022-09-29T08:03:53;16.70;99.90
40249;DHT22;25969;49.970;11.062;2022-09-29T08:13:54;16.90;94.90
40249;DHT22;25969;49.970;11.062;2022-09-29T08:23:54;16.10;95.40
40249;DHT22;25969;49.970;11.062;2022-09-29T08:33:57;15.70;95.10
40249;DHT22;25969;49.970;11.062;2022-09-29T08:44:31;14.40;98.70
40249;DHT22;25969;49.970;11.062;2022-09-29T08:54:41;14.20;99.90
40249;DHT22;25969;49.970;11.062;2022-09-29T09:15:49;15.90;94.80
40249;DHT22;25969;49.970;11.062;2022-09-29T09:25:55;21.60;74.40
40249;DHT22;25969;49.970;11.062;2022-09-29T09:36:05;22.20;67.20
40249;DHT22;25969;49.970;11.062;2022-09-29T09:46:22;24.20;55.90
40249;DHT22;25969;49.970;11.062;2022-09-29T10:06:30;21.60;61.50
40249;DHT22;25969;49.970;11.062;2022-09-29T10:16:44;20.40;67.00
40249;DHT22;25969;49.970;11.062;2022-09-29T10:26:46;22.30;60.70
40249;DHT22;25969;49.970;11.062;2022-09-29T10:36:52;25.20;52.20
40249;DHT22;25969;49.970;11.062;2022-09-29T10:46:54;21.50;61.50
40249;DHT22;25969;49.970;11.062;2022-09-29T10:56:55;22.90;56.30
40249;DHT22;25969;49.970;11.062;2022-09-29T11:07:13;27.10;49.20
40249;DHT22;25969;49.970;11.062;2022-09-29T11:17:21;21.00;58.30
40249;DHT22;25969;49.970;11.062;2022-09-29T11:28:01;18.90;64.40
40249;DHT22;25969;49.970;11.062;2022-09-29T11:38:37;25.10;53.00
40249;DHT22;25969;49.970;11.062;2022-09-29T11:49:03;22.80;54.10
40249;DHT22;25969;49.970;11.062;2022-09-29T12:10:03;20.70;55.20
40249;DHT22;25969;49.970;11.062;2022-09-29T12:20:57;18.00;55.80
40249;DHT22;25969;49.970;11.062;2022-09-29T12:30:46;16.80;60.10
40249;DHT22;25969;49.970;11.062;2022-09-29T12:41:11;16.70;64.40
40249;DHT22;25969;49.970;11.062;2022-09-29T13:01:30;16.50;59.90
40249;DHT22;25969;49.970;11.062;2022-09-29T13:32:13;15.40;66.00
40249;DHT22;25969;49.970;11.062;2022-09-29T13:42:25;14.60;68.80
40249;DHT22;25969;49.970;11.062;2022-09-29T13:52:29;14.20;73.90
40249;DHT22;25969;49.970;11.062;2022-09-29T14:02:46;14.10;80.00
40249;DHT22;25969;49.970;11.062;2022-09-29T14:13:02;13.50;87.00
40249;DHT22;25969;49.970;11.062;2022-09-29T14:23:06;13.50;85.40
40249;DHT22;25969;49.970;11.062;2022-09-29T14:33:13;13.20;84.30
40249;DHT22;25969;49.970;11.062;2022-09-29T14:43:16;12.80;87.80
40249;DHT22;25969;49.970;11.062;2022-09-29T15:04:14;12.30;91.50
40249;DHT22;25969;49.970;11.062;2022-09-29T15:14:25;12.30;92.10
40249;DHT22;25969;49.970;11.062;2022-09-29T15:34:39;12.20;99.90
40249;DHT22;25969;49.970;11.062;2022-09-29T15:44:45;11.80;98.60
40249;DHT22;25969;49.970;11.062;2022-09-29T15:54:47;11.60;99.90
40249;DHT22;25969;49.970;11.062;2022-09-29T16:04:55;11.70;99.90
40249;DHT22;25969;49.970;11.062;2022-09-29T16:14:57;11.30;99.90
40249;DHT22;25969;49.970;11.062;2022-09-29T16:25:10;11.00;99.90
40249;DHT22;25969;49.970;11.062;2022-09-29T16:45:38;10.60;99.90
40249;DHT22;25969;49.970;11.062;2022-09-29T16:55:40;10.70;99.90
40249;DHT22;25969;49.970;11.062;2022-09-29T17:05:43;10.40;99.90
40249;DHT22;25969;49.970;11.062;2022-09-29T17:15:49;10.20;99.90
40249;DHT22;25969;49.970;11.062;2022-09-29T17:25:50;10.00;99.90
40249;DHT22;25969;49.970;11.062;2022-09-29T17:35:51;9.80;99.90
40249;DHT22;25969;49.970;11.062;2022-09-29T17:45:53;9.80;99.90
40249;DHT22;25969;49.970;11.062;2022-09-29T17:55:57;9.70;99.90
40249;DHT22;25969;49.970;11.062;2022-09-29T18:05:59;9.50;99.90
40249;DHT22;25969;49.970;11.062;2022-09-29T18:16:00;9.30;99.90
40249;DHT22;25969;49.970;11.062;2022-09-29T18:26:02;9.30;99.90
40249;DHT22;25969;49.970;11.062;2022-09-29T18:36:03;9.10;99.90
40249;DHT22;25969;49.970;11.062;2022-09-29T18:46:04;9.10;99.90
40249;DHT22;25969;49.970;11.062;2022-09-29T18:56:05;9.00;99.90
40249;DHT22;25969;49.970;11.062;2022-09-29T19:06:07;8.90;99.90
40249;DHT22;25969;49.970;11.062;2022-09-29T19:16:08;9.00;99.90
40249;DHT22;25969;49.970;11.062;2022-09-29T19:26:14;8.80;99.90
40249;DHT22;25969;49.970;11.062;2022-09-29T19:36:18;8.80;99.90
40249;DHT22;25969;49.970;11.062;2022-09-29T19:46:20;8.80;99.90
40249;DHT22;25969;49.970;11.062;2022-09-29T19:56:21;8.80;99.90
40249;DHT22;25969;49.970;11.062;2022-09-29T20:06:22;8.60;99.90
40249;DHT22;25969;49.970;11.062;2022-09-29T20:16:23;8.50;99.90
40249;DHT22;25969;49.970;11.062;2022-09-29T20:26:24;8.60;99.90
40249;DHT22;25969;49.970;11.062;2022-09-29T20:36:25;8.30;99.90
40249;DHT22;25969;49.970;11.062;2022-09-29T20:46:26;8.20;99.90
40249;DHT22;25969;49.970;11.062;2022-09-29T20:56:30;8.10;99.90
40249;DHT22;25969;49.970;11.062;2022-09-29T21:06:34;8.10;99.90
40249;DHT22;25969;49.970;11.062;2022-09-29T21:16:37;8.00;99.90
40249;DHT22;25969;49.970;11.062;2022-09-29T21:26:39;7.60;99.90
40249;DHT22;25969;49.970;11.062;2022-09-29T21:36:40;7.60;99.90
40249;DHT22;25969;49.970;11.062;2022-09-29T21:46:42;7.20;99.90
40249;DHT22;25969;49.970;11.062;2022-09-29T21:56:44;7.30;99.90
